Time;durP1;ratioP1;P1;durP2;ratioP2;P2;SDS_P1;SDS_P2;PMS_P1;PMS_P2;Temp;Humidity;BMP_temperature;BMP_pressure;BME280_temperature;BME280_humidity;BME280_pressure;Samples;Min_cycle;Max_cycle;Signal;HPM_P1;HPM_P2
2021/06/29 00:00:02;;;;;;;21.70;8.20;;;;;;;15.40;67.68;98920.20;2233580;79;21091;-68
2021/06/29 00:03:05;;;;;;;23.42;9.53;;;;;;;15.34;67.97;98914.55;2275982;78;21111;-65
2021/06/29 00:06:06;;;;;;;19.67;7.05;;;;;;;15.30;68.30;98910.47;2233388;79;21072;-65
2021/06/29 00:09:07;;;;;;;19.97;7.70;;;;;;;15.23;67.92;98912.29;2276179;78;21036;-62
2021/06/29 00:12:09;;;;;;;20.43;8.00;;;;;;;15.11;68.50;98910.60;2233606;79;20988;-65
2021/06/29 00:15:10;;;;;;;18.47;7.50;;;;;;;15.04;68.73;98926.11;2276140;78;22257;-62
2021/06/29 00:18:12;;;;;;;21.83;8.33;;;;;;;15.05;68.69;98919.84;2233804;80;20962;-62
2021/06/29 00:21:13;;;;;;;21.03;7.93;;;;;;;15.03;68.51;98912.53;2275852;78;21019;-61
2021/06/29 00:24:15;;;;;;;20.03;8.63;;;;;;;14.90;68.78;98904.72;2233843;79;21027;-61
2021/06/29 00:27:16;;;;;;;22.23;8.03;;;;;;;14.90;68.78;98904.72;2276123;78;21750;-64
2021/06/29 00:30:18;;;;;;;21.23;8.08;;;;;;;14.97;68.84;98910.84;2233381;79;21551;-61
2021/06/29 00:33:19;;;;;;;19.48;8.15;;;;;;;14.89;68.75;98914.09;2275711;78;21070;-65
2021/06/29 00:36:21;;;;;;;19.57;7.85;;;;;;;14.89;68.75;98914.09;2233523;79;20954;-64
2021/06/29 00:39:22;;;;;;;20.40;8.07;;;;;;;14.86;68.79;98905.91;2276267;78;21535;-61
2021/06/29 00:42:24;;;;;;;19.82;7.47;;;;;;;14.84;68.87;98906.53;2233560;79;20971;-65
2021/06/29 00:45:25;;;;;;;19.77;7.53;;;;;;;14.81;68.96;98897.53;2276281;78;21058;-61
2021/06/29 00:48:27;;;;;;;24.02;8.53;;;;;;;14.77;69.13;98889.48;2233426;80;21028;-65
2021/06/29 00:51:28;;;;;;;20.17;7.53;;;;;;;14.75;69.61;98888.74;2276227;78;21571;-63
2021/06/29 00:54:30;;;;;;;19.13;6.97;;;;;;;14.63;69.77;98884.42;2233472;79;21026;-61
2021/06/29 00:57:31;;;;;;;17.60;6.90;;;;;;;14.44;70.35;98880.98;2276060;78;21098;-62
2021/06/29 01:00:32;;;;;;;18.23;7.03;;;;;;;14.44;70.35;98880.98;2233724;79;21503;-61
2021/06/29 01:03:34;;;;;;;19.77;7.80;;;;;;;14.33;70.41;98877.85;2276108;78;21027;-61
2021/06/29 01:06:35;;;;;;;20.00;7.43;;;;;;;14.17;71.00;98880.32;2233704;80;21550;-61
2021/06/29 01:09:37;;;;;;;20.50;7.17;;;;;;;14.09;70.95;98880.53;2276103;78;21027;-61
2021/06/29 01:12:38;;;;;;;15.37;5.40;;;;;;;14.05;70.59;98879.94;2233556;79;21093;-61
2021/06/29 01:15:39;;;;;;;19.73;6.37;;;;;;;14.00;70.48;98876.79;2276169;78;21031;-61
2021/06/29 01:18:41;;;;;;;17.33;5.80;;;;;;;13.98;70.41;98872.95;2233532;79;20972;-61
2021/06/29 01:21:44;;;;;;;19.97;6.83;;;;;;;13.96;70.54;98874.01;2261806;78;21517;-71
2021/06/29 01:24:52;;;;;;;19.05;6.85;;;;;;;14.01;70.63;98877.16;2227583;79;20997;-64
2021/06/29 01:33:56;;;;;;;21.15;7.90;;;;;;;14.09;70.38;98873.45;2227152;79;21497;-61
2021/06/29 01:36:58;;;;;;;20.85;8.58;;;;;;;14.00;70.60;98865.75;2251014;79;21060;-67
2021/06/29 01:40:05;;;;;;;17.33;5.90;;;;;;;14.06;71.07;98876.32;2251187;79;21100;-67
2021/06/29 01:43:03;;;;;;;20.72;8.13;;;;;;;13.91;70.90;98857.22;2227292;79;21482;-71
2021/06/29 01:46:04;;;;;;;18.60;5.73;;;;;;;13.91;70.90;98857.22;2251422;79;21037;-71
2021/06/29 01:49:05;;;;;;;19.97;7.07;;;;;;;13.94;70.76;98866.22;2251175;79;21733;-64
2021/06/29 01:52:07;;;;;;;19.37;6.83;;;;;;;13.90;71.13;98862.12;2251587;79;21559;-70
2021/06/29 01:55:09;;;;;;;20.40;7.20;;;;;;;13.86;71.31;98859.34;2251193;79;20997;-60
2021/06/29 01:58:10;;;;;;;19.73;7.03;;;;;;;13.71;71.43;98853.42;2251112;79;21056;-72
2021/06/29 02:01:12;;;;;;;19.95;6.97;;;;;;;13.64;71.71;98854.34;2251275;79;21012;-64
2021/06/29 02:04:14;;;;;;;19.73;7.55;;;;;;;13.65;71.32;98857.34;2251390;79;21135;-60
2021/06/29 02:07:15;;;;;;;21.70;8.07;;;;;;;13.66;71.43;98854.22;2251249;79;21004;-60
2021/06/29 02:10:17;;;;;;;19.55;7.30;;;;;;;13.64;71.43;98845.11;2251063;79;21000;-61
2021/06/29 02:13:19;;;;;;;29.42;8.35;;;;;;;13.64;71.56;98841.16;2251160;79;21090;-61
2021/06/29 02:16:20;;;;;;;20.60;8.20;;;;;;;13.73;72.00;98840.13;2251468;79;21499;-61
2021/06/29 02:19:22;;;;;;;20.27;7.53;;;;;;;13.76;71.78;98838.09;2251248;79;21012;-60
2021/06/29 02:22:23;;;;;;;19.30;7.43;;;;;;;13.69;71.28;98845.62;2250955;79;21088;-62
2021/06/29 02:25:25;;;;;;;23.18;7.42;;;;;;;13.59;71.60;98845.95;2251340;79;21044;-62
2021/06/29 02:28:26;;;;;;;22.33;7.93;;;;;;;13.59;71.60;98845.95;2251223;79;21021;-61
2021/06/29 02:31:28;;;;;;;20.10;7.80;;;;;;;13.59;71.64;98844.63;2251025;79;21614;-63
2021/06/29 02:34:30;;;;;;;21.07;7.97;;;;;;;13.62;71.23;98850.13;2251438;79;21004;-65
2021/06/29 02:37:31;;;;;;;20.00;8.20;;;;;;;13.58;71.36;98853.97;2250751;79;21020;-60
2021/06/29 02:40:33;;;;;;;19.17;7.97;;;;;;;13.58;71.40;98853.97;2251342;79;21084;-61
2021/06/29 02:43:37;;;;;;;20.77;8.00;;;;;;;13.55;71.45;98852.84;2251238;79;21099;-60
2021/06/29 02:46:37;;;;;;;20.62;7.90;;;;;;;13.55;71.47;98844.48;2227406;79;20988;-61
2021/06/29 02:49:39;;;;;;;21.03;8.07;;;;;;;13.50;71.53;98850.09;2251435;79;21547;-64
2021/06/29 02:52:40;;;;;;;21.80;7.60;;;;;;;13.54;71.67;98852.02;2251322;79;21048;-72
2021/06/29 02:55:42;;;;;;;20.80;8.27;;;;;;;13.57;71.57;98849.16;2251293;79;21531;-69
2021/06/29 02:58:43;;;;;;;21.45;7.65;;;;;;;13.63;71.62;98853.13;2250988;79;21053;-76
2021/06/29 03:01:45;;;;;;;21.77;8.30;;;;;;;13.68;71.59;98857.11;2250996;79;21120;-74
2021/06/29 03:04:46;;;;;;;17.93;6.47;;;;;;;13.74;71.37;98853.19;2251606;79;21543;-74
2021/06/29 03:07:48;;;;;;;13.17;4.87;;;;;;;13.82;71.29;98848.66;2251335;79;21045;-71
2021/06/29 03:10:49;;;;;;;16.23;5.93;;;;;;;13.95;70.84;98857.81;2251341;79;21029;-72
2021/06/29 03:13:51;;;;;;;14.97;5.30;;;;;;;14.05;70.66;98862.80;2251582;79;21060;-75
2021/06/29 03:16:52;;;;;;;16.50;5.13;;;;;;;14.14;70.47;98873.95;2250956;79;21111;-67
2021/06/29 03:19:54;;;;;;;23.25;7.83;;;;;;;14.21;70.10;98877.81;2251349;79;21025;-62
2021/06/29 03:22:56;;;;;;;18.83;5.90;;;;;;;14.24;70.27;98870.16;2251040;79;21049;-65
2021/06/29 03:25:57;;;;;;;19.20;7.33;;;;;;;14.46;70.54;98867.20;2251380;79;21586;-68
2021/06/29 03:28:59;;;;;;;21.80;7.47;;;;;;;14.71;70.37;98867.49;2251153;79;21076;-71
2021/06/29 03:32:00;;;;;;;21.65;7.17;;;;;;;14.93;70.65;98861.39;2251044;79;21520;-70
2021/06/29 03:35:07;;;;;;;20.90;7.03;;;;;;;15.00;70.18;98859.95;2251307;79;21065;-72
2021/06/29 03:38:05;;;;;;;21.97;7.97;;;;;;;15.09;69.89;98858.88;2226986;79;21024;-75
2021/06/29 03:41:07;;;;;;;21.13;7.77;;;;;;;15.27;69.84;98857.41;2251561;79;21455;-75
2021/06/29 03:44:08;;;;;;;21.37;7.30;;;;;;;15.72;69.59;98849.34;2251139;79;21085;-79
2021/06/29 03:47:10;;;;;;;21.57;7.60;;;;;;;15.72;69.59;98849.34;2251080;79;21524;-75
2021/06/29 03:50:11;;;;;;;18.40;7.20;;;;;;;15.96;69.40;98861.56;2251377;79;21487;-65
2021/06/29 03:53:12;;;;;;;21.93;7.73;;;;;;;16.25;69.15;98853.83;2251084;79;21036;-60
2021/06/29 03:59:17;;;;;;;21.90;7.67;;;;;;;16.49;68.73;98859.33;2227689;79;21542;-60
2021/06/29 04:02:18;;;;;;;22.22;7.28;;;;;;;16.60;68.72;98856.60;2251357;79;21007;-61
2021/06/29 04:05:20;;;;;;;23.73;7.77;;;;;;;16.87;68.90;98859.18;2251287;79;21037;-60
2021/06/29 04:08:21;;;;;;;22.60;7.53;;;;;;;17.22;68.93;98853.13;2251319;79;21308;-61
2021/06/29 04:11:23;;;;;;;22.83;8.63;;;;;;;17.93;67.76;98856.95;2251385;79;21365;-61
2021/06/29 04:14:25;;;;;;;;;;;;;;;17.93;67.76;98856.95;2253513;79;21891;-61
2021/06/29 04:17:27;;;;;;;22.73;8.33;;;;;;;18.26;67.37;98864.60;2251142;79;20094;-64
2021/06/29 04:20:28;;;;;;;21.60;7.80;;;;;;;18.56;66.95;98858.75;2251029;79;21534;-65
2021/06/29 04:23:30;;;;;;;20.60;8.05;;;;;;;18.69;67.07;98858.79;2273355;78;21090;-65
2021/06/29 04:26:31;;;;;;;21.50;8.03;;;;;;;18.98;66.81;98860.53;2233082;79;21036;-65
2021/06/29 04:29:32;;;;;;;21.95;8.43;;;;;;;19.25;66.46;98857.55;2276232;78;21553;-66
2021/06/29 04:32:34;;;;;;;24.75;8.83;;;;;;;19.51;66.18;98862.98;2233431;79;21094;-64
2021/06/29 04:35:35;;;;;;;21.07;8.50;;;;;;;19.75;65.68;98856.22;2276254;78;21574;-68
2021/06/29 04:38:37;;;;;;;24.12;9.15;;;;;;;19.95;65.35;98861.43;2233468;79;21076;-63
2021/06/29 04:41:38;;;;;;;22.25;9.30;;;;;;;20.09;65.24;98860.89;2276024;78;21102;-61
2021/06/29 04:44:40;;;;;;;22.45;9.43;;;;;;;20.31;65.32;98857.39;2233568;80;20952;-61
2021/06/29 04:50:45;;;;;;;19.75;8.70;;;;;;;20.75;65.10;98846.21;2216586;80;21051;-68
2021/06/29 04:53:46;;;;;;;27.52;10.25;;;;;;;21.05;64.30;98840.03;2276281;78;21597;-65
2021/06/29 04:56:48;;;;;;;24.87;10.23;;;;;;;21.36;64.13;98843.96;2233479;80;21020;-63
2021/06/29 04:59:49;;;;;;;23.35;10.03;;;;;;;21.55;62.56;98838.38;2276091;78;21549;-68
2021/06/29 05:02:51;;;;;;;22.52;10.03;;;;;;;21.66;62.66;98833.72;2233753;80;20979;-66
2021/06/29 05:05:52;;;;;;;;;;;;;;;21.99;62.71;98829.23;2278468;78;21193;-62
2021/06/29 05:08:54;;;;;;;23.07;9.43;;;;;;;22.18;61.46;98823.22;2276352;78;20168;-76
2021/06/29 05:11:55;;;;;;;22.90;9.40;;;;;;;22.39;61.78;98826.23;2233523;79;21071;-76
2021/06/29 05:14:57;;;;;;;20.52;8.85;;;;;;;22.63;61.32;98825.34;2276082;78;21058;-77
2021/06/29 05:17:58;;;;;;;23.57;9.88;;;;;;;22.83;59.50;98819.63;2233400;80;21086;-75
2021/06/29 05:21:00;;;;;;;22.77;8.78;;;;;;;22.93;60.41;98816.23;2275715;78;21499;-76
2021/06/29 05:24:01;;;;;;;25.30;9.43;;;;;;;23.02;58.93;98815.69;2211660;79;21007;-76
2021/06/29 05:27:03;;;;;;;21.77;7.83;;;;;;;23.14;59.60;98818.35;2224686;80;21044;-74
2021/06/29 05:30:05;;;;;;;;;;;;;;;23.35;58.91;98824.92;2226933;80;21061;-77
2021/06/29 05:33:06;;;;;;;21.37;7.87;;;;;;;23.66;57.79;98822.70;2210189;81;20155;-75
2021/06/29 05:36:08;;;;;;;23.15;7.17;;;;;;;23.76;57.81;98821.14;2232816;79;20962;-76
2021/06/29 05:39:09;;;;;;;23.00;8.05;;;;;;;24.07;57.99;98822.95;2232719;79;20983;-76
2021/06/29 05:42:11;;;;;;;19.73;7.75;;;;;;;24.44;57.10;98822.58;2232709;79;20937;-77
2021/06/29 05:45:14;;;;;;;19.10;7.45;;;;;;;24.73;56.24;98818.61;2232579;79;20936;-74
2021/06/29 05:48:18;;;;;;;20.70;7.55;;;;;;;25.03;55.43;98824.48;2206911;80;20940;-61
2021/06/29 05:51:19;;;;;;;21.15;7.67;;;;;;;25.36;55.59;98825.42;2206969;80;21030;-69
2021/06/29 05:54:20;;;;;;;19.82;6.90;;;;;;;25.66;54.79;98823.47;2232880;80;21553;-70
2021/06/29 05:57:22;;;;;;;18.07;6.78;;;;;;;25.85;53.66;98812.59;2232918;79;21062;-67
2021/06/29 06:00:24;;;;;;;19.30;6.90;;;;;;;26.04;52.76;98810.30;2232691;79;20966;-70
2021/06/29 06:03:25;;;;;;;17.98;7.03;;;;;;;26.19;53.33;98804.83;2232757;79;21106;-67
2021/06/29 06:06:26;;;;;;;18.05;6.67;;;;;;;26.69;50.50;98812.85;2232831;79;20963;-67
2021/06/29 06:09:28;;;;;;;18.85;6.30;;;;;;;26.69;50.50;98812.85;2233597;79;21081;-68
2021/06/29 06:12:29;;;;;;;17.55;6.33;;;;;;;26.77;51.46;98815.39;2232798;79;20975;-72
2021/06/29 06:15:31;;;;;;;18.07;6.50;;;;;;;27.02;50.95;98810.31;2232807;79;20932;-67
2021/06/29 06:18:32;;;;;;;21.00;6.22;;;;;;;27.28;50.40;98814.99;2232851;80;20947;-70
2021/06/29 06:21:34;;;;;;;16.27;6.25;;;;;;;27.51;49.66;98811.13;2232875;79;20939;-71
2021/06/29 06:24:35;;;;;;;16.07;5.58;;;;;;;27.61;47.69;98817.47;2273206;78;21489;-76
2021/06/29 06:27:37;;;;;;;15.83;5.28;;;;;;;27.64;46.53;98818.41;2253258;79;21088;-70
2021/06/29 06:30:41;;;;;;;14.18;5.40;;;;;;;27.63;47.60;98818.11;2253377;79;21088;-73
2021/06/29 06:33:41;;;;;;;14.87;5.20;;;;;;;27.97;47.38;98816.27;2227896;79;21032;-74
2021/06/29 06:36:43;;;;;;;15.30;5.30;;;;;;;28.30;47.51;98813.62;2254018;79;21476;-63
2021/06/29 06:39:45;;;;;;;15.98;5.45;;;;;;;28.55;45.83;98809.41;2253913;79;21000;-63
2021/06/29 06:42:47;;;;;;;11.65;4.67;;;;;;;28.76;45.83;98815.95;2253960;79;21019;-62
2021/06/29 06:45:49;;;;;;;16.23;5.10;;;;;;;29.11;44.78;98813.44;2276073;78;21083;-62
2021/06/29 06:48:50;;;;;;;;;;;;;;;29.26;45.61;98812.65;2236226;79;21039;-63
2021/06/29 06:51:52;;;;;;;14.68;4.90;;;;;;;29.48;43.18;98804.22;2276189;78;20133;-66
2021/06/29 06:54:53;;;;;;;;;;;;;;;29.48;44.08;98798.81;2236145;79;21071;-65
2021/06/29 06:57:55;;;;;;;12.95;4.50;;;;;;;29.48;41.92;98793.41;2275826;78;20132;-63
2021/06/29 07:00:56;;;;;;;13.95;4.80;;;;;;;29.60;42.21;98793.56;2233525;79;21040;-63
2021/06/29 07:03:57;;;;;;;;;;;;;;;29.75;42.63;98799.47;2278825;78;21522;-68
2021/06/29 07:06:59;;;;;;;12.75;4.65;;;;;;;30.05;41.94;98787.50;2276185;78;20184;-75
2021/06/29 07:10:00;;;;;;;;;;;;;;;30.13;41.02;98786.41;2236162;79;21047;-63
2021/06/29 07:13:02;;;;;;;14.20;4.53;;;;;;;30.35;41.10;98786.00;2276147;78;20093;-63
2021/06/29 07:16:03;;;;;;;14.30;4.85;;;;;;;30.59;40.98;98781.63;2233425;79;21075;-63
2021/06/29 07:19:05;;;;;;;14.43;4.90;;;;;;;30.67;39.61;98778.59;2276261;78;21075;-64
2021/06/29 07:22:06;;;;;;;10.23;4.28;;;;;;;30.72;40.35;98780.11;2230123;79;21075;-65
2021/06/29 07:25:08;;;;;;;13.70;4.90;;;;;;;30.88;39.18;98780.56;2224737;80;21537;-72
2021/06/29 07:28:09;;;;;;;11.48;3.98;;;;;;;30.90;37.93;98775.73;2224485;80;21074;-66
2021/06/29 07:31:10;;;;;;;13.75;4.30;;;;;;;30.86;36.94;98767.77;2224771;80;20988;-70
2021/06/29 07:34:12;;;;;;;12.63;3.65;;;;;;;30.91;37.72;98774.16;2224760;80;21550;-65
2021/06/29 07:37:13;;;;;;;10.32;3.85;;;;;;;31.07;36.79;98770.56;2224802;80;21004;-69
2021/06/29 07:40:15;;;;;;;8.93;3.58;;;;;;;31.23;36.19;98763.16;2224761;80;21091;-67
2021/06/29 07:43:16;;;;;;;8.00;3.62;;;;;;;31.24;34.09;98756.67;2224892;80;20968;-66
2021/06/29 07:46:18;;;;;;;11.20;4.00;;;;;;;31.07;33.97;98761.89;2224699;80;20988;-72
2021/06/29 07:49:19;;;;;;;9.63;3.65;;;;;;;31.03;33.81;98756.67;2224766;80;21447;-72
2021/06/29 07:52:21;;;;;;;8.98;3.70;;;;;;;31.11;35.05;98754.16;2224776;80;20995;-63
2021/06/29 07:55:24;;;;;;;12.25;4.03;;;;;;;31.29;34.01;98754.62;2224762;80;20953;-66
2021/06/29 07:58:27;;;;;;;11.08;3.90;;;;;;;31.52;34.33;98755.75;2201364;80;20972;-66
2021/06/29 08:01:28;;;;;;;10.10;3.77;;;;;;;31.74;33.92;98754.19;2227711;80;21060;-69
2021/06/29 08:04:30;;;;;;;11.35;3.47;;;;;;;31.84;33.74;98751.41;2227547;80;21056;-69
2021/06/29 08:07:31;;;;;;;9.08;3.45;;;;;;;31.90;31.99;98764.05;2227485;80;21040;-69
2021/06/29 08:10:33;;;;;;;12.98;3.50;;;;;;;31.85;32.00;98765.27;2227542;80;21071;-66
2021/06/29 08:13:34;;;;;;;13.00;3.60;;;;;;;31.61;32.29;98768.77;2227602;80;21510;-69
2021/06/29 08:16:36;;;;;;;9.55;3.17;;;;;;;31.65;33.18;98772.37;2227578;80;21032;-76
2021/06/29 08:19:37;;;;;;;10.00;3.45;;;;;;;31.82;31.70;98769.27;2227555;80;21044;-73
2021/06/29 08:22:39;;;;;;;11.28;4.08;;;;;;;31.98;32.14;98779.98;2235631;79;21088;-76
2021/06/29 08:25:40;;;;;;;13.13;3.80;;;;;;;32.25;31.35;98774.95;2260894;79;20984;-67
2021/06/29 08:28:42;;;;;;;9.15;3.58;;;;;;;32.37;31.61;98772.23;2261036;79;21522;-74
2021/06/29 08:31:43;;;;;;;7.62;3.00;;;;;;;32.44;29.93;98767.50;2261064;79;20945;-67
2021/06/29 08:34:45;;;;;;;10.18;3.72;;;;;;;32.32;28.51;98769.93;2260864;79;20953;-66
2021/06/29 08:37:46;;;;;;;9.43;3.77;;;;;;;32.03;30.98;98781.98;2260910;79;20984;-65
2021/06/29 08:40:48;;;;;;;9.85;3.50;;;;;;;32.24;31.20;98777.36;2267143;79;21062;-74
2021/06/29 08:43:50;;;;;;;10.35;3.70;;;;;;;32.58;29.53;98766.69;2266874;79;21075;-64
2021/06/29 08:46:51;;;;;;;10.32;3.70;;;;;;;32.72;30.86;98760.51;2266983;78;21495;-63
2021/06/29 08:49:52;;;;;;;11.65;3.60;;;;;;;32.90;30.36;98760.89;2267096;78;21081;-64
2021/06/29 08:52:54;;;;;;;11.45;3.42;;;;;;;32.92;30.20;98764.17;2266849;79;21040;-64
2021/06/29 08:55:56;;;;;;;8.28;3.22;;;;;;;32.90;27.43;98764.11;2266848;78;21523;-64
2021/06/29 08:58:59;;;;;;;8.50;3.22;;;;;;;32.72;28.53;98765.94;2266942;79;21024;-63
2021/06/29 09:02:01;;;;;;;9.53;3.25;;;;;;;32.79;29.66;98763.10;2266911;79;21016;-64
2021/06/29 09:05:02;;;;;;;7.15;3.22;;;;;;;32.89;28.70;98755.16;2266786;78;21550;-67
2021/06/29 09:08:04;;;;;;;9.45;3.40;;;;;;;32.58;29.12;98759.91;2267101;78;21028;-75
2021/06/29 09:11:06;;;;;;;10.03;3.33;;;;;;;32.73;28.83;98752.66;2266788;79;21016;-67
2021/06/29 09:14:09;;;;;;;10.85;3.50;;;;;;;32.86;29.03;98756.16;2266721;79;21476;-73
2021/06/29 09:17:11;;;;;;;8.95;3.10;;;;;;;33.11;28.82;98761.27;2266894;79;21522;-63
2021/06/29 09:20:13;;;;;;;9.88;3.47;;;;;;;33.26;29.83;98760.24;2267221;78;21035;-64
2021/06/29 09:23:14;;;;;;;9.78;3.25;;;;;;;33.50;29.01;98750.59;2268914;78;21091;-63
2021/06/29 09:26:16;;;;;;;6.55;3.10;;;;;;;33.68;28.76;98743.56;2273016;78;21554;-64
2021/06/29 09:29:17;;;;;;;9.30;3.52;;;;;;;33.89;28.89;98739.02;2272600;78;21114;-64
2021/06/29 09:32:19;;;;;;;5.55;3.00;;;;;;;34.07;29.29;98734.67;2272922;78;21039;-64
2021/06/29 09:35:20;;;;;;;10.68;3.90;;;;;;;34.22;27.16;98737.33;2272940;78;21585;-68
2021/06/29 09:38:22;;;;;;;12.85;4.00;;;;;;;34.19;27.12;98734.05;2233366;79;21024;-63
2021/06/29 09:41:24;;;;;;;8.55;3.47;;;;;;;33.65;27.30;98733.73;2275628;78;21593;-64
2021/06/29 09:44:25;;;;;;;9.40;3.40;;;;;;;33.81;28.47;98723.41;2233356;79;21063;-64
2021/06/29 09:47:29;;;;;;;9.50;3.27;;;;;;;34.01;28.32;98716.64;2275792;78;20963;-64
2021/06/29 09:50:30;;;;;;;8.43;3.90;;;;;;;34.22;28.12;98716.91;2216706;80;20949;-66
2021/06/29 09:53:32;;;;;;;7.05;3.17;;;;;;;34.44;26.62;98709.62;2276019;78;21122;-68
2021/06/29 09:56:38;;;;;;;8.58;3.30;;;;;;;34.50;27.62;98713.24;2233344;80;21051;-64
2021/06/29 09:59:37;;;;;;;10.35;3.80;;;;;;;34.55;27.05;98707.03;2247202;78;20945;-68
2021/06/29 10:02:40;;;;;;;9.78;3.70;;;;;;;34.53;27.15;98707.28;2233383;79;21055;-64
2021/06/29 10:05:42;;;;;;;10.80;3.52;;;;;;;34.26;28.45;98707.98;2276074;78;21060;-70
2021/06/29 10:08:43;;;;;;;11.43;3.92;;;;;;;34.21;28.04;98709.30;2233735;79;21054;-65
2021/06/29 10:11:45;;;;;;;11.73;3.17;;;;;;;34.18;27.61;98705.18;2276178;78;21534;-67
2021/06/29 10:14:46;;;;;;;11.68;3.72;;;;;;;34.44;28.13;98708.27;2233385;80;21011;-64
2021/06/29 10:17:48;;;;;;;10.58;3.60;;;;;;;34.71;27.58;98697.95;2276023;78;21039;-65
2021/06/29 10:20:52;;;;;;;8.93;3.47;;;;;;;34.83;26.83;98701.95;2233958;79;20999;-81
2021/06/29 10:23:52;;;;;;;8.28;3.20;;;;;;;34.82;26.09;98690.22;2240224;79;21047;-67
2021/06/29 10:26:55;;;;;;;8.30;3.15;;;;;;;34.86;27.30;98687.27;2259237;79;20944;-67
2021/06/29 10:29:58;;;;;;;8.45;3.30;;;;;;;34.86;26.30;98681.00;2259271;78;21027;-64
2021/06/29 10:33:02;;;;;;;7.90;3.52;;;;;;;34.84;27.16;98684.51;2184401;81;21496;-64
2021/06/29 10:36:03;;;;;;;8.23;3.33;;;;;;;34.71;27.14;98684.34;2173969;81;21555;-81
2021/06/29 10:39:04;;;;;;;8.28;3.33;;;;;;;34.81;26.43;98687.75;2200043;81;20993;-79
2021/06/29 10:42:06;;;;;;;8.65;3.27;;;;;;;34.79;25.55;98674.94;2199914;81;20996;-81
2021/06/29 10:45:08;;;;;;;7.33;2.87;;;;;;;34.79;26.82;98684.47;2199859;81;21040;-73
2021/06/29 10:48:09;;;;;;;10.58;3.10;;;;;;;34.98;25.90;98675.40;2199825;81;21032;-80
2021/06/29 10:51:11;;;;;;;8.68;3.15;;;;;;;34.83;24.99;98677.44;2199845;81;20997;-80
2021/06/29 10:54:12;;;;;;;8.13;3.10;;;;;;;34.64;25.63;98672.81;2199693;81;21085;-81
2021/06/29 10:57:16;;;;;;;7.53;3.05;;;;;;;34.69;25.35;98676.97;2199733;81;21017;-81
2021/06/29 11:00:17;;;;;;;6.90;3.15;;;;;;;34.75;26.01;98673.22;2174007;81;20961;-77
2021/06/29 11:03:18;;;;;;;10.13;3.37;;;;;;;35.08;24.87;98671.95;2199758;81;21550;-81
2021/06/29 11:06:20;;;;;;;7.47;3.20;;;;;;;35.30;25.59;98671.91;2199887;81;21000;-81
2021/06/29 11:09:22;;;;;;;8.83;3.08;;;;;;;35.44;25.82;98668.20;2199838;81;21033;-80
2021/06/29 11:12:23;;;;;;;6.85;3.25;;;;;;;35.10;25.52;98663.81;2199805;81;21073;-81
2021/06/29 11:15:25;;;;;;;9.30;3.30;;;;;;;35.05;24.79;98655.58;2199866;81;21029;-75
2021/06/29 11:18:29;;;;;;;8.33;2.92;;;;;;;35.08;24.89;98666.51;2199635;81;21587;-80
2021/06/29 11:21:33;;;;;;;8.85;2.95;;;;;;;35.08;25.58;98656.42;2199869;81;20970;-81
2021/06/29 11:24:34;;;;;;;9.78;3.10;;;;;;;35.26;25.53;98656.59;2191987;80;21020;-78
2021/06/29 11:27:36;;;;;;;6.25;3.00;;;;;;;35.45;24.17;98647.50;2227135;80;21466;-80
2021/06/29 11:30:37;;;;;;;11.25;3.25;;;;;;;35.35;24.29;98641.42;2227423;80;21079;-76
2021/06/29 11:33:39;;;;;;;8.45;3.10;;;;;;;35.20;24.81;98645.37;2227455;80;21064;-75
2021/06/29 11:36:40;;;;;;;6.83;3.12;;;;;;;34.89;25.06;98643.72;2227322;80;21546;-76
2021/06/29 11:39:42;;;;;;;9.80;3.45;;;;;;;34.94;24.68;98645.14;2227400;80;21071;-64
2021/06/29 11:42:44;;;;;;;8.88;3.25;;;;;;;34.83;24.42;98631.13;2227503;80;21087;-65
2021/06/29 11:45:45;;;;;;;7.80;3.15;;;;;;;34.43;25.00;98639.11;2224874;80;20967;-65
2021/06/29 11:48:49;;;;;;;7.67;3.15;;;;;;;34.59;24.83;98631.94;2224641;80;20984;-69
2021/06/29 11:51:50;;;;;;;7.55;3.10;;;;;;;34.84;24.31;98625.42;2201132;80;21013;-67
2021/06/29 11:54:52;;;;;;;10.58;3.40;;;;;;;34.84;23.42;98623.22;2224716;80;21447;-70
2021/06/29 11:57:53;;;;;;;9.48;3.10;;;;;;;34.78;24.78;98625.59;2224686;80;21071;-65
2021/06/29 12:00:55;;;;;;;6.33;2.90;;;;;;;35.06;24.30;98620.45;2224811;80;20949;-71
2021/06/29 12:03:56;;;;;;;9.23;3.10;;;;;;;35.11;23.33;98618.30;2227445;80;20975;-66
2021/06/29 12:06:58;;;;;;;8.85;3.00;;;;;;;35.07;24.54;98628.91;2227372;80;21071;-66
2021/06/29 12:25:11;;;;;;;7.35;2.60;;;;;;;36.40;22.78;98594.84;2261481;79;22896;-68
2021/06/29 12:28:12;;;;;;;7.42;2.80;;;;;;;36.22;22.26;98593.41;2228081;80;21598;-68
2021/06/29 12:31:12;;;;;;;9.18;3.08;;;;;;;36.14;22.43;98578.09;2227616;80;20979;-68
2021/06/29 12:34:13;;;;;;;7.40;2.95;;;;;;;36.04;21.35;98572.05;2228177;80;20972;-68
2021/06/29 12:53:38;;;;;;;9.08;2.98;;;;;;;36.95;22.31;98552.05;2238633;79;23406;-68
2021/06/29 12:56:39;;;;;;;6.45;2.98;;;;;;;36.98;21.82;98543.86;2189405;80;21007;-68
2021/06/29 12:59:39;;;;;;;5.53;2.85;;;;;;;36.33;21.83;98535.58;2189275;81;20997;-68
2021/06/29 13:05:43;;;;;;;8.48;3.20;;;;;;;36.22;22.65;98521.59;2131340;83;20983;-68
2021/06/29 13:08:43;;;;;;;6.62;3.15;;;;;;;36.07;22.57;98521.83;2147457;83;21027;-68
2021/06/29 13:11:44;;;;;;;9.48;3.10;;;;;;;35.33;23.49;98521.45;2147130;83;21080;-68
2021/06/29 13:14:44;;;;;;;9.30;3.25;;;;;;;34.81;23.31;98523.81;2147602;83;21028;-68
2021/06/29 13:17:45;;;;;;;8.08;3.30;;;;;;;34.30;23.61;98518.66;2147599;83;20983;-68
2021/06/29 13:20:45;;;;;;;6.35;3.12;;;;;;;33.95;24.23;98502.73;2147496;83;21078;-68
2021/06/29 13:23:46;;;;;;;;;;;;;;;33.72;24.83;98496.98;2150187;83;21482;-68
2021/06/29 13:26:46;;;;;;;12.00;3.67;;;;;;;33.59;24.64;98481.36;2130904;84;20392;-67
2021/06/29 13:29:47;;;;;;;;;;;;;;;33.41;25.37;98474.31;2132885;84;20986;-68
2021/06/29 13:32:49;;;;;;;10.47;3.43;;;;;;;33.37;25.70;98479.96;2147863;83;20111;-67
2021/06/29 13:35:49;;;;;;;10.20;3.50;;;;;;;33.30;26.10;98484.75;2131215;83;20956;-67
2021/06/29 13:38:50;;;;;;;;;;;;;;;33.13;26.46;98490.18;2150179;83;21466;-67
2021/06/29 13:41:50;;;;;;;7.30;3.27;;;;;;;33.06;26.28;98482.23;2130901;83;20097;-67
2021/06/29 13:44:51;;;;;;;6.97;3.15;;;;;;;32.96;26.22;98478.81;2130789;83;21016;-67
2021/06/29 13:47:51;;;;;;;;;;;;;;;32.99;26.53;98478.31;2133288;83;21012;-68
2021/06/29 13:50:52;;;;;;;8.33;3.22;;;;;;;33.06;26.84;98464.57;2130810;84;20146;-69
2021/06/29 13:53:52;;;;;;;10.68;3.30;;;;;;;33.14;27.32;98464.67;2118480;84;21515;-67
2021/06/29 13:56:53;;;;;;;;;;;;;;;33.47;26.93;98462.97;2121012;84;21262;-67
2021/06/29 13:59:54;;;;;;;6.45;3.15;;;;;;;33.75;27.47;98457.08;2137734;83;20477;-67
2021/06/29 14:02:54;;;;;;;;;;;;;;;33.83;27.09;98449.33;2140314;83;21003;-67
2021/06/29 14:05:54;;;;;;;7.23;3.47;;;;;;;34.01;26.93;98451.41;2118062;84;20093;-67
2021/06/29 14:08:55;;;;;;;;;;;;;;;33.93;27.01;98445.87;2120266;84;20994;-67
2021/06/29 14:11:56;;;;;;;10.90;3.70;;;;;;;33.94;26.61;98448.07;2137045;83;20107;-67
2021/06/29 14:14:57;;;;;;;;;;;;;;;34.05;26.92;98439.47;2139731;83;21039;-67
2021/06/29 14:17:57;;;;;;;11.43;3.40;;;;;;;34.40;26.59;98439.02;2117925;84;20098;-67
2021/06/29 14:20:57;;;;;;;;;;;;;;;34.79;26.11;98429.83;2120195;84;21005;-67
2021/06/29 14:23:58;;;;;;;8.33;3.20;;;;;;;34.79;25.75;98428.46;2137521;83;20098;-68
2021/06/29 14:26:58;;;;;;;9.93;3.15;;;;;;;35.16;25.86;98429.78;2137174;83;20972;-67
2021/06/29 14:29:59;;;;;;;6.72;3.30;;;;;;;35.28;25.73;98421.38;2136812;83;20992;-68
2021/06/29 14:32:59;;;;;;;7.25;3.10;;;;;;;35.32;24.66;98418.44;2137384;83;21071;-67
2021/06/29 14:36:00;;;;;;;8.53;2.90;;;;;;;35.27;23.73;98408.86;2137252;83;21024;-67
2021/06/29 14:39:00;;;;;;;7.40;3.05;;;;;;;35.37;24.19;98413.02;2137422;83;20944;-68
2021/06/29 14:42:01;;;;;;;8.90;3.50;;;;;;;35.63;24.97;98417.21;2137365;83;20948;-67
2021/06/29 14:45:01;;;;;;;8.30;3.17;;;;;;;35.61;24.24;98414.47;2137139;83;21095;-67
2021/06/29 14:48:02;;;;;;;11.03;3.20;;;;;;;35.55;24.32;98421.25;2137282;83;21023;-67
2021/06/29 14:51:03;;;;;;;10.28;3.37;;;;;;;35.30;24.74;98425.23;2137226;83;21023;-67
2021/06/29 14:54:03;;;;;;;9.00;3.30;;;;;;;34.96;24.76;98432.39;2137079;82;21044;-67
2021/06/29 14:57:04;;;;;;;10.10;3.10;;;;;;;34.72;24.48;98432.73;2137262;83;21074;-67